Terminal Aerodrome Forecast
Issued by NWS

Home | Current Version | Previous Version | Graphics & Text | Print | Product List | Glossary On
Versions: 1 2 3 4 5 6 7 8 9 10 11 12 13 14 15 16 17 18 19 20 21 22 23 24
000
FTUS43 KTOP 182300
TAFMHK
TAF
KMHK 182334Z 1900/1924 10007KT P6SM SCT040
     FM190800 14004KT 5SM BR BKN010
     FM191400 17006KT P6SM SCT020
     FM191600 19012G17KT P6SM FEW050=

USA.gov is the U.S. government's official web portal to all federal, state and local government web resources and services.